Terminal Aerodrome Forecast
Issued by NWS Burlington, VT

Home | Current Version | Previous Version | Text Only | Print | Product List | Glossary On
Versions: 1 2 3 4 5 6 7 8 9 10 11 12 13 14 15
000
FTUS41 KBTV 061133 RRA
TAFBTV
TAF
KBTV 061133Z 0612/0712 00000KT P6SM BKN015
     FM061400 00000KT P6SM BKN035
     FM061600 00000KT P6SM SCT090
     FM062300 00000KT P6SM BKN200
     FM070300 VRB03KT P6SM VCSH BKN120=

USA.gov is the U.S. government's official web portal to all federal, state and local government web resources and services.